Time;durP1;ratioP1;P1;durP2;ratioP2;P2;SDS_P1;SDS_P2;PMS_P1;PMS_P2;Temp;Humidity;BMP_temperature;BMP_pressure;BME280_temperature;BME280_humidity;BME280_pressure;Samples;Min_cycle;Max_cycle;Signal;HPM_P1;HPM_P2
2023/04/01 00:02:11;;;;;;;;;;;;;;;;;;6105663;23;19921;-89
2023/04/01 00:04:38;;;;;;;;;;;;;;;;;;6130519;23;19921;-88
2023/04/01 00:07:07;;;;;;;;;;;;;;;;;;6108343;23;19921;-86
2023/04/01 00:09:35;;;;;;;;;;;;;;;;;;6132056;23;19928;-88
2023/04/01 00:12:05;;;;;;;;;;;;;;;;;;6105507;23;19928;-89
2023/04/01 00:14:36;;;;;;;;;;;;;;;;;;6106795;23;20348;-87
2023/04/01 00:17:12;;;;;;;;;;;;;;;;;;6129349;23;19920;-87
2023/04/01 00:19:39;;;;;;;;;;;;;;;;;;6103359;23;19921;-87
2023/04/01 00:22:11;;;;;;;;;;;;;;;;;;6103643;23;20333;-88
2023/04/01 00:24:38;;;;;;;;;;;;;;;;;;6160322;23;19925;-89
2023/04/01 00:27:07;;;;;;;;;;;;;;;;;;6128753;23;19920;-87
2023/04/01 00:29:34;;;;;;;;;;;;;;;;;;6129227;23;19925;-89
2023/04/01 00:32:02;;;;;;;;;;;;;;;;;;6104573;23;20256;-87
2023/04/01 00:34:39;;;;;;;;;;;;;;;;;;6105921;23;20299;-87
2023/04/01 00:37:08;;;;;;;;;;;;;;;;;;6104540;23;19931;-88
2023/04/01 00:39:37;;;;;;;;;;;;;;;;;;6128068;23;20348;-87
2023/04/01 00:42:07;;;;;;;;;;;;;;;;;;6103019;23;20352;-87
2023/04/01 00:44:35;;;;;;;;;;;;;;;;;;6104118;23;19927;-87
2023/04/01 00:47:02;;;;;;;;;;;;;;;;;;6127165;23;20348;-89
2023/04/01 00:49:30;;;;;;;;;;;;;;;;;;6128269;23;19964;-88
2023/04/01 00:51:57;;;;;;;;;;;;;;;;;;6105326;23;19973;-87
2023/04/01 00:54:26;;;;;;;;;;;;;;;;;;6138713;23;19928;-87
2023/04/01 00:56:55;;;;;;;;;;;;;;;;;;6132069;23;19921;-87
2023/04/01 00:59:24;;;;;;;;;;;;;;;;;;6128293;23;19921;-89
2023/04/01 01:01:51;;;;;;;;;;;;;;;;;;6104899;23;19921;-89
2023/04/01 01:04:22;;;;;;;;;;;;;;;;;;6103472;23;19925;-87
2023/04/01 01:06:56;;;;;;;;;;;;;;;;;;6104887;23;20268;-88
2023/04/01 01:09:33;;;;;;;;;;;;;;;;;;6136848;23;19924;-88
2023/04/01 01:12:03;;;;;;;;;;;;;;;;;;6126459;23;20345;-88
2023/04/01 01:14:35;;;;;;;;;;;;;;;;;;6127938;23;19920;-87
2023/04/01 01:17:06;;;;;;;;;;;;;;;;;;6103723;23;20352;-87
2023/04/01 01:19:38;;;;;;;;;;;;;;;;;;6104576;23;19958;-85
2023/04/01 01:22:11;;;;;;;;;;;;;;;;;;6103722;23;19920;-86
2023/04/01 01:24:43;;;;;;;;;;;;;;;;;;6103263;23;20267;-88
2023/04/01 01:27:10;;;;;;;;;;;;;;;;;;6138526;23;19944;-88
2023/04/01 01:29:44;;;;;;;;;;;;;;;;;;6102458;23;19928;-87
2023/04/01 01:32:19;;;;;;;;;;;;;;;;;;6128188;23;20371;-87
2023/04/01 01:34:47;;;;;;;;;;;;;;;;;;6106857;23;19927;-88
2023/04/01 01:37:16;;;;;;;;;;;;;;;;;;6153225;23;19927;-87
2023/04/01 01:39:46;;;;;;;;;;;;;;;;;;6104419;23;19928;-88
2023/04/01 01:42:14;;;;;;;;;;;;;;;;;;6102258;23;19920;-87
2023/04/01 01:44:41;;;;;;;;;;;;;;;;;;6105704;23;19927;-88
2023/04/01 01:47:11;;;;;;;;;;;;;;;;;;6128767;23;19928;-87
2023/04/01 01:49:41;;;;;;;;;;;;;;;;;;6105463;23;20352;-88
2023/04/01 01:52:11;;;;;;;;;;;;;;;;;;6106377;23;19925;-88
2023/04/01 01:54:48;;;;;;;;;;;;;;;;;;6104048;23;19921;-90
2023/04/01 01:57:18;;;;;;;;;;;;;;;;;;6106382;23;20012;-89
2023/04/01 01:59:49;;;;;;;;;;;;;;;;;;6104765;23;19928;-87
2023/04/01 02:02:24;;;;;;;;;;;;;;;;;;6105504;23;19921;-87
2023/04/01 02:04:51;;;;;;;;;;;;;;;;;;6155687;23;19932;-88
2023/04/01 02:07:19;;;;;;;;;;;;;;;;;;6129045;23;19920;-88
2023/04/01 02:09:48;;;;;;;;;;;;;;;;;;6107405;23;19921;-88
2023/04/01 02:12:18;;;;;;;;;;;;;;;;;;6104917;23;19921;-88
2023/04/01 02:14:46;;;;;;;;;;;;;;;;;;6130646;23;19928;-87
2023/04/01 02:17:14;;;;;;;;;;;;;;;;;;6129946;23;19921;-87
2023/04/01 02:19:42;;;;;;;;;;;;;;;;;;6140902;23;19928;-88
2023/04/01 02:22:09;;;;;;;;;;;;;;;;;;6104538;23;19928;-90
2023/04/01 02:24:37;;;;;;;;;;;;;;;;;;6106028;23;19921;-87
2023/04/01 02:27:06;;;;;;;;;;;;;;;;;;6130241;23;19920;-88
2023/04/01 02:29:35;;;;;;;;;;;;;;;;;;6130541;23;19920;-87
2023/04/01 02:32:05;;;;;;;;;;;;;;;;;;6128589;23;19928;-89
2023/04/01 02:34:33;;;;;;;;;;;;;;;;;;6130662;23;19924;-88
2023/04/01 02:37:00;;;;;;;;;;;;;;;;;;6130827;23;19920;-89
2023/04/01 02:39:30;;;;;;;;;;;;;;;;;;6108969;23;20233;-88
2023/04/01 02:41:57;;;;;;;;;;;;;;;;;;6105090;23;19925;-86
2023/04/01 02:44:26;;;;;;;;;;;;;;;;;;6105602;23;19927;-87
2023/04/01 02:46:53;;;;;;;;;;;;;;;;;;6105535;23;20238;-87
2023/04/01 02:49:23;;;;;;;;;;;;;;;;;;6140386;23;20340;-88
2023/04/01 02:51:51;;;;;;;;;;;;;;;;;;6138759;23;19924;-89
2023/04/01 02:54:21;;;;;;;;;;;;;;;;;;6105475;23;20272;-88
2023/04/01 02:56:48;;;;;;;;;;;;;;;;;;6106104;23;19921;-90
2023/04/01 02:59:18;;;;;;;;;;;;;;;;;;6106513;23;19927;-88
2023/04/01 03:01:46;;;;;;;;;;;;;;;;;;6129632;23;19925;-88
2023/04/01 03:04:16;;;;;;;;;;;;;;;;;;6104873;23;20398;-87
2023/04/01 03:06:43;;;;;;;;;;;;;;;;;;6129512;23;19929;-88
2023/04/01 03:09:11;;;;;;;;;;;;;;;;;;6106562;23;19921;-89
2023/04/01 03:11:40;;;;;;;;;;;;;;;;;;6130481;23;19921;-87
2023/04/01 03:14:10;;;;;;;;;;;;;;;;;;6127696;23;19921;-87
2023/04/01 03:16:37;;;;;;;;;;;;;;;;;;6104298;23;20254;-88
2023/04/01 03:19:06;;;;;;;;;;;;;;;;;;6105457;23;19925;-88
2023/04/01 03:21:36;;;;;;;;;;;;;;;;;;6104521;23;20245;-87
2023/04/01 03:24:03;;;;;;;;;;;;;;;;;;6104151;23;19927;-88
2023/04/01 03:26:31;;;;;;;;;;;;;;;;;;6131487;23;19928;-89
2023/04/01 03:29:00;;;;;;;;;;;;;;;;;;6106619;23;20276;-89
2023/04/01 03:31:30;;;;;;;;;;;;;;;;;;6131132;23;19928;-88
2023/04/01 03:33:58;;;;;;;;;;;;;;;;;;6104163;23;19927;-87
2023/04/01 03:36:26;;;;;;;;;;;;;;;;;;6105612;23;19928;-87
2023/04/01 03:38:56;;;;;;;;;;;;;;;;;;6105181;23;20257;-85
2023/04/01 03:41:33;;;;;;;;;;;;;;;;;;6135761;23;19921;-89
2023/04/01 03:44:01;;;;;;;;;;;;;;;;;;6144280;23;19968;-86
2023/04/01 03:46:28;;;;;;;;;;;;;;;;;;6108409;23;19931;-89
2023/04/01 03:48:57;;;;;;;;;;;;;;;;;;6106317;23;20264;-88
2023/04/01 03:51:26;;;;;;;;;;;;;;;;;;6106319;23;19921;-88
2023/04/01 03:53:59;;;;;;;;;;;;;;;;;;6103609;23;19927;-87
2023/04/01 03:56:28;;;;;;;;;;;;;;;;;;6117847;23;19931;-86
2023/04/01 03:58:56;;;;;;;;;;;;;;;;;;6167941;23;19927;-86
2023/04/01 04:01:26;;;;;;;;;;;;;;;;;;6158254;23;19927;-86
2023/04/01 04:03:56;;;;;;;;;;;;;;;;;;6133319;23;19951;-86
2023/04/01 04:06:23;;;;;;;;;;;;;;;;;;6170655;23;19920;-86
2023/04/01 04:08:52;;;;;;;;;;;;;;;;;;6212641;23;20411;-86
2023/04/01 04:11:21;;;;;;;;;;;;;;;;;;6197834;23;19924;-86
2023/04/01 04:13:52;;;;;;;;;;;;;;;;;;6187700;23;19935;-86
2023/04/01 04:16:21;;;;;;;;;;;;;;;;;;6162181;23;19939;-86
2023/04/01 04:18:55;;;;;;;;;;;;;;;;;;6197054;23;19920;-86
2023/04/01 04:21:26;;;;;;;;;;;;;;;;;;6188043;23;19927;-86
2023/04/01 04:23:54;;;;;;;;;;;;;;;;;;6161801;23;19920;-86
2023/04/01 04:26:24;;;;;;;;;;;;;;;;;;6187075;23;20212;-86
2023/04/01 04:28:57;;;;;;;;;;;;;;;;;;6163053;23;20432;-86
2023/04/01 04:31:25;;;;;;;;;;;;;;;;;;6163152;23;19970;-86
2023/04/01 04:33:53;;;;;;;;;;;;;;;;;;6196772;23;19924;-85
2023/04/01 04:36:20;;;;;;;;;;;;;;;;;;6191957;23;20320;-86
2023/04/01 04:38:49;;;;;;;;;;;;;;;;;;6185567;23;19927;-86
2023/04/01 04:41:18;;;;;;;;;;;;;;;;;;6198314;23;19919;-86
2023/04/01 04:43:52;;;;;;;;;;;;;;;;;;6196310;23;19927;-86
2023/04/01 04:46:21;;;;;;;;;;;;;;;;;;6212191;23;20409;-86
2023/04/01 04:48:51;;;;;;;;;;;;;;;;;;6160575;23;19931;-86
2023/04/01 04:51:20;;;;;;;;;;;;;;;;;;6186459;23;19920;-86
2023/04/01 04:53:50;;;;;;;;;;;;;;;;;;6159669;23;20359;-86
2023/04/01 04:56:22;;;;;;;;;;;;;;;;;;6191863;23;19927;-86
2023/04/01 04:59:02;;;;;;;;;;;;;;;;;;6223711;23;19935;-86
2023/04/01 05:01:41;;;;;;;;;;;;;;;;;;6197226;23;19920;-86
2023/04/01 05:04:08;;;;;;;;;;;;;;;;;;6161880;23;19927;-86
2023/04/01 05:06:35;;;;;;;;;;;;;;;;;;6187312;23;19920;-86
2023/04/01 05:09:02;;;;;;;;;;;;;;;;;;6186498;23;19923;-86
2023/04/01 05:11:30;;;;;;;;;;;;;;;;;;6186517;23;20352;-86
2023/04/01 05:13:57;;;;;;;;;;;;;;;;;;6211143;23;19927;-86
2023/04/01 05:16:27;;;;;;;;;;;;;;;;;;6187973;23;20035;-86
2023/04/01 05:18:59;;;;;;;;;;;;;;;;;;6198324;23;19927;-86
2023/04/01 05:21:28;;;;;;;;;;;;;;;;;;6223440;23;20355;-86
2023/04/01 05:23:58;;;;;;;;;;;;;;;;;;6186757;23;19920;-86
2023/04/01 05:26:26;;;;;;;;;;;;;;;;;;6161488;23;19920;-86
2023/04/01 05:28:54;;;;;;;;;;;;;;;;;;6187127;23;19924;-86
2023/04/01 05:31:23;;;;;;;;;;;;;;;;;;6222584;23;19919;-86
2023/04/01 05:33:50;;;;;;;;;;;;;;;;;;6186640;23;20352;-86
2023/04/01 05:36:20;;;;;;;;;;;;;;;;;;6186983;23;19927;-86
2023/04/01 05:38:50;;;;;;;;;;;;;;;;;;6187683;23;19920;-85
2023/04/01 05:41:20;;;;;;;;;;;;;;;;;;6161380;23;19927;-85
2023/04/01 05:43:47;;;;;;;;;;;;;;;;;;6214015;23;20333;-85
2023/04/01 05:46:34;;;;;;;;;;;;;;;;;;6186377;23;19928;-85
2023/04/01 05:49:11;;;;;;;;;;;;;;;;;;6195212;23;19920;-85
2023/04/01 05:51:38;;;;;;;;;;;;;;;;;;6186488;23;19920;-85
2023/04/01 05:54:08;;;;;;;;;;;;;;;;;;6160610;23;19927;-85
2023/04/01 05:56:35;;;;;;;;;;;;;;;;;;6161208;23;19927;-86
2023/04/01 05:59:05;;;;;;;;;;;;;;;;;;6223152;23;19920;-86
2023/04/01 06:01:33;;;;;;;;;;;;;;;;;;6162136;23;19919;-86
2023/04/01 06:04:03;;;;;;;;;;;;;;;;;;6159624;23;19924;-87
2023/04/01 06:06:31;;;;;;;;;;;;;;;;;;6162542;23;19945;-86
2023/04/01 06:09:08;;;;;;;;;;;;;;;;;;6161578;23;19924;-86
2023/04/01 06:11:40;;;;;;;;;;;;;;;;;;6212227;23;19924;-87
2023/04/01 06:14:14;;;;;;;;;;;;;;;;;;6160160;23;20344;-87
2023/04/01 06:16:53;;;;;;;;;;;;;;;;;;6191687;23;19927;-86
2023/04/01 06:19:26;;;;;;;;;;;;;;;;;;6161721;23;19924;-86
2023/04/01 06:22:06;;;;;;;;;;;;;;;;;;6161859;23;19924;-86
2023/04/01 06:24:57;;;;;;;;;;;;;;;;;;6196718;23;19930;-87
2023/04/01 06:27:31;;;;;;;;;;;;;;;;;;6184633;23;19927;-86
2023/04/01 06:30:00;;;;;;;;;;;;;;;;;;6161981;23;19922;-86
2023/04/01 06:32:43;;;;;;;;;;;;;;;;;;6196163;23;19928;-86
2023/04/01 06:35:17;;;;;;;;;;;;;;;;;;6162145;23;19920;-86
2023/04/01 06:37:48;;;;;;;;;;;;;;;;;;6198481;23;19920;-86
2023/04/01 06:40:31;;;;;;;;;;;;;;;;;;6188859;23;19950;-86
2023/04/01 06:43:02;;;;;;;;;;;;;;;;;;6212355;23;20264;-86
2023/04/01 06:45:56;;;;;;;;;;;;;;;;;;6217311;23;19927;-86
2023/04/01 06:48:46;;;;;;;;;;;;;;;;;;6188260;23;19927;-85
2023/04/01 06:51:51;;;;;;;;;;;;;;;;;;6122547;23;20253;-86
2023/04/01 06:54:37;;;;;;;;;;;;;;;;;;6209696;23;19944;-86
2023/04/01 06:57:40;;;;;;;;;;;;;;;;;;6214733;23;19920;-86
2023/04/01 07:00:12;;;;;;;;;;;;;;;;;;6198501;23;19920;-86
2023/04/01 07:02:40;;;;;;;;;;;;;;;;;;6162708;23;20252;-86
2023/04/01 07:05:11;;;;;;;;;;;;;;;;;;6188042;23;19920;-86
2023/04/01 07:07:39;;;;;;;;;;;;;;;;;;6187606;23;20292;-86
2023/04/01 07:10:11;;;;;;;;;;;;;;;;;;6198289;23;19927;-86
2023/04/01 07:13:03;;;;;;;;;;;;;;;;;;6144725;23;19935;-86
2023/04/01 07:15:56;;;;;;;;;;;;;;;;;;6193861;23;19927;-87
2023/04/01 07:18:30;;;;;;;;;;;;;;;;;;6188475;23;19926;-86
2023/04/01 07:20:59;;;;;;;;;;;;;;;;;;6188751;23;19924;-87
2023/04/01 07:23:27;;;;;;;;;;;;;;;;;;6186463;23;19920;-86
2023/04/01 07:26:20;;;;;;;;;;;;;;;;;;6203465;23;20288;-86
2023/04/01 07:29:02;;;;;;;;;;;;;;;;;;6224216;23;19927;-87
2023/04/01 07:31:52;;;;;;;;;;;;;;;;;;6222421;23;19931;-87
2023/04/01 07:34:23;;;;;;;;;;;;;;;;;;6162907;23;19919;-87
2023/04/01 07:36:54;;;;;;;;;;;;;;;;;;6185723;23;19919;-87
2023/04/01 07:39:25;;;;;;;;;;;;;;;;;;6158296;23;19920;-87
2023/04/01 07:42:05;;;;;;;;;;;;;;;;;;6221233;23;19924;-86
2023/04/01 07:44:35;;;;;;;;;;;;;;;;;;6196290;23;19927;-86
2023/04/01 07:47:09;;;;;;;;;;;;;;;;;;6185780;23;19927;-83
2023/04/01 07:49:38;;;;;;;;;;;;;;;;;;6197384;23;20336;-88
2023/04/01 07:52:12;;;;;;;;;;;;;;;;;;6162262;23;20363;-88
2023/04/01 07:54:45;;;;;;;;;;;;;;;;;;6160686;23;19931;-88
2023/04/01 07:57:14;;;;;;;;;;;;;;;;;;6158925;23;19920;-88
2023/04/01 07:59:48;;;;;;;;;;;;;;;;;;6162367;23;19926;-87
2023/04/01 08:02:45;;;;;;;;;;;;;;;;;;6224469;23;19924;-88
2023/04/01 08:05:17;;;;;;;;;;;;;;;;;;6187920;23;19920;-88
2023/04/01 08:07:49;;;;;;;;;;;;;;;;;;6162209;23;19920;-88
2023/04/01 08:10:42;;;;;;;;;;;;;;;;;;6186836;23;20264;-88
2023/04/01 08:13:40;;;;;;;;;;;;;;;;;;6095600;23;19924;-88
2023/04/01 08:19:22;;;;;;;;;;;;;;;;;;6186885;23;19920;-90
2023/04/01 08:21:53;;;;;;;;;;;;;;;;;;6157698;23;19920;-90
2023/04/01 08:24:26;;;;;;;;;;;;;;;;;;6145536;23;19924;-90
2023/04/01 08:26:54;;;;;;;;;;;;;;;;;;6163368;23;19920;-90
2023/04/01 08:29:22;;;;;;;;;;;;;;;;;;6189070;23;20359;-91
2023/04/01 08:31:50;;;;;;;;;;;;;;;;;;6163186;23;19969;-90
2023/04/01 08:34:19;;;;;;;;;;;;;;;;;;6162479;23;19926;-90
2023/04/01 08:36:48;;;;;;;;;;;;;;;;;;6162787;23;20007;-91
2023/04/01 08:39:17;;;;;;;;;;;;;;;;;;6162038;23;19920;-92
2023/04/01 08:42:08;;;;;;;;;;;;;;;;;;6162295;23;19920;-90
2023/04/01 08:44:52;;;;;;;;;;;;;;;;;;6162591;23;19919;-90
2023/04/01 08:47:26;;;;;;;;;;;;;;;;;;6187908;23;19931;-91
2023/04/01 08:49:58;;;;;;;;;;;;;;;;;;6161663;23;19920;-91
2023/04/01 08:52:49;;;;;;;;;;;;;;;;;;6158359;23;20435;-90
2023/04/01 08:55:21;;;;;;;;;;;;;;;;;;6159210;23;19919;-90
2023/04/01 08:58:29;;;;;;;;;;;;;;;;;;6187275;23;19931;-91
2023/04/01 09:01:18;;;;;;;;;;;;;;;;;;6180586;23;19924;-91
2023/04/01 09:03:53;;;;;;;;;;;;;;;;;;6161235;23;19935;-90
2023/04/01 09:06:28;;;;;;;;;;;;;;;;;;6186817;23;19920;-90
2023/04/01 09:09:03;;;;;;;;;;;;;;;;;;6162341;23;19919;-90
2023/04/01 09:11:33;;;;;;;;;;;;;;;;;;6161780;23;19924;-90
2023/04/01 09:14:24;;;;;;;;;;;;;;;;;;6186264;23;19920;-91
2023/04/01 09:17:18;;;;;;;;;;;;;;;;;;6161640;23;19978;-90
2023/04/01 09:19:51;;;;;;;;;;;;;;;;;;6187079;23;19927;-90
2023/04/01 09:22:23;;;;;;;;;;;;;;;;;;6160642;23;19927;-90
2023/04/01 09:24:59;;;;;;;;;;;;;;;;;;6161076;23;19941;-90
2023/04/01 09:27:30;;;;;;;;;;;;;;;;;;6161712;23;19920;-91
2023/04/01 09:30:15;;;;;;;;;;;;;;;;;;6162246;23;19924;-90
2023/04/01 09:32:56;;;;;;;;;;;;;;;;;;6160740;23;19927;-90
2023/04/01 09:35:33;;;;;;;;;;;;;;;;;;6185793;23;20271;-90
2023/04/01 09:38:07;;;;;;;;;;;;;;;;;;6161489;23;19924;-91
2023/04/01 09:40:37;;;;;;;;;;;;;;;;;;6160931;23;19920;-90
2023/04/01 09:43:26;;;;;;;;;;;;;;;;;;6160389;23;19920;-89
2023/04/01 09:46:01;;;;;;;;;;;;;;;;;;6154765;23;19924;-90
2023/04/01 09:48:37;;;;;;;;;;;;;;;;;;6161357;23;20236;-91
2023/04/01 09:51:07;;;;;;;;;;;;;;;;;;6161108;23;19920;-90
2023/04/01 09:53:38;;;;;;;;;;;;;;;;;;6160632;23;19920;-90
2023/04/01 09:59:10;;;;;;;;;;;;;;;;;;6151795;23;19920;-89
2023/04/01 10:02:22;;;;;;;;;;;;;;;;;;6138935;23;19920;-88
2023/04/01 10:05:04;;;;;;;;;;;;;;;;;;6197769;23;20446;-91
2023/04/01 10:07:47;;;;;;;;;;;;;;;;;;6185707;23;20299;-91
2023/04/01 10:10:28;;;;;;;;;;;;;;;;;;6115981;23;19927;-91
2023/04/01 10:13:01;;;;;;;;;;;;;;;;;;6174215;23;19930;-91
2023/04/01 10:15:47;;;;;;;;;;;;;;;;;;6222725;23;20095;-88
2023/04/01 10:18:20;;;;;;;;;;;;;;;;;;6185339;23;19920;-90
2023/04/01 10:21:17;;;;;;;;;;;;;;;;;;6185717;23;19921;-91
2023/04/01 10:24:09;;;;;;;;;;;;;;;;;;6137670;23;19920;-89
2023/04/01 10:27:08;;;;;;;;;;;;;;;;;;6208623;23;20340;-89
2023/04/01 10:30:02;;;;;;;;;;;;;;;;;;6183423;23;19924;-89
2023/04/01 10:32:55;;;;;;;;;;;;;;;;;;6160112;23;19931;-89
2023/04/01 10:35:40;;;;;;;;;;;;;;;;;;6183745;23;19920;-90
2023/04/01 10:38:19;;;;;;;;;;;;;;;;;;6166620;23;19921;-89
2023/04/01 10:40:51;;;;;;;;;;;;;;;;;;6159821;23;19927;-90
2023/04/01 10:44:10;;;;;;;;;;;;;;;;;;6172212;23;19927;-90
2023/04/01 10:46:44;;;;;;;;;;;;;;;;;;6159390;23;19920;-89
2023/04/01 10:49:17;;;;;;;;;;;;;;;;;;6161613;23;19921;-91
2023/04/01 10:52:17;;;;;;;;;;;;;;;;;;6158714;23;19928;-89
2023/04/01 10:55:32;;;;;;;;;;;;;;;;;;6077573;23;19964;-89
2023/04/01 10:58:37;;;;;;;;;;;;;;;;;;6185760;23;19920;-91
2023/04/01 11:01:44;;;;;;;;;;;;;;;;;;6183713;23;20264;-90
2023/04/01 11:04:48;;;;;;;;;;;;;;;;;;6149904;23;19920;-89
2023/04/01 11:07:54;;;;;;;;;;;;;;;;;;6182776;23;20264;-87
2023/04/01 11:10:42;;;;;;;;;;;;;;;;;;6185484;23;20348;-89
2023/04/01 11:13:18;;;;;;;;;;;;;;;;;;6136650;23;19924;-89
2023/04/01 11:15:56;;;;;;;;;;;;;;;;;;6183651;23;19924;-88
2023/04/01 11:18:42;;;;;;;;;;;;;;;;;;6182955;23;19931;-89
2023/04/01 11:21:31;;;;;;;;;;;;;;;;;;6159173;23;19920;-89
2023/04/01 11:24:04;;;;;;;;;;;;;;;;;;6159813;23;20349;-88
2023/04/01 11:26:34;;;;;;;;;;;;;;;;;;6182966;23;19924;-89
2023/04/01 11:29:26;;;;;;;;;;;;;;;;;;6153288;23;19924;-90
2023/04/01 11:31:56;;;;;;;;;;;;;;;;;;6184217;23;19924;-89
2023/04/01 11:34:30;;;;;;;;;;;;;;;;;;6160803;23;19921;-89
2023/04/01 11:37:00;;;;;;;;;;;;;;;;;;6159495;23;19920;-89
2023/04/01 11:39:31;;;;;;;;;;;;;;;;;;6159748;23;19932;-88
2023/04/01 11:42:19;;;;;;;;;;;;;;;;;;6184432;23;19931;-89
2023/04/01 11:45:11;;;;;;;;;;;;;;;;;;6184938;23;19925;-91
2023/04/01 11:47:50;;;;;;;;;;;;;;;;;;6160645;23;19943;-89
2023/04/01 11:50:22;;;;;;;;;;;;;;;;;;6196536;23;19920;-91
2023/04/01 11:53:07;;;;;;;;;;;;;;;;;;6161184;23;19927;-90
2023/04/01 11:55:37;;;;;;;;;;;;;;;;;;6167782;23;19931;-92
2023/04/01 11:58:08;;;;;;;;;;;;;;;;;;6186249;23;19931;-89
2023/04/01 12:00:48;;;;;;;;;;;;;;;;;;6163993;23;19925;-91
2023/04/01 12:03:27;;;;;;;;;;;;;;;;;;6160435;23;20336;-90
2023/04/01 12:05:55;;;;;;;;;;;;;;;;;;6162926;23;19932;-91
2023/04/01 12:08:29;;;;;;;;;;;;;;;;;;6162541;23;19931;-89
2023/04/01 12:10:56;;;;;;;;;;;;;;;;;;6162610;23;19920;-91
2023/04/01 12:13:30;;;;;;;;;;;;;;;;;;6165167;23;19927;-91
2023/04/01 12:16:18;;;;;;;;;;;;;;;;;;6170941;23;19931;-91
2023/04/01 12:18:48;;;;;;;;;;;;;;;;;;6152065;23;19921;-91
2023/04/01 12:21:19;;;;;;;;;;;;;;;;;;6162902;23;19943;-92
2023/04/01 12:23:55;;;;;;;;;;;;;;;;;;6186338;23;19926;-89
2023/04/01 12:26:28;;;;;;;;;;;;;;;;;;6161870;23;20268;-89
2023/04/01 12:29:00;;;;;;;;;;;;;;;;;;6197132;23;19921;-89
2023/04/01 12:31:29;;;;;;;;;;;;;;;;;;6163957;23;19924;-91
2023/04/01 12:34:06;;;;;;;;;;;;;;;;;;6161015;23;19924;-91
2023/04/01 12:36:36;;;;;;;;;;;;;;;;;;6161490;23;20344;-89
2023/04/01 12:39:12;;;;;;;;;;;;;;;;;;6184751;23;19927;-90
2023/04/01 12:41:40;;;;;;;;;;;;;;;;;;6160019;23;19920;-89
2023/04/01 12:44:18;;;;;;;;;;;;;;;;;;6159702;23;19921;-88
2023/04/01 12:46:51;;;;;;;;;;;;;;;;;;6159368;23;20263;-90
2023/04/01 12:49:21;;;;;;;;;;;;;;;;;;6158818;23;19920;-91
2023/04/01 12:51:55;;;;;;;;;;;;;;;;;;6160125;23;19920;-90
2023/04/01 12:54:41;;;;;;;;;;;;;;;;;;6184298;23;19927;-91
2023/04/01 12:57:14;;;;;;;;;;;;;;;;;;6159628;23;19920;-91
2023/04/01 12:59:46;;;;;;;;;;;;;;;;;;6184193;23;20522;-89
2023/04/01 13:02:14;;;;;;;;;;;;;;;;;;6161051;23;19920;-91
2023/04/01 13:04:59;;;;;;;;;;;;;;;;;;6159666;23;19943;-92
2023/04/01 13:07:32;;;;;;;;;;;;;;;;;;6162132;23;19921;-94
2023/04/01 13:10:02;;;;;;;;;;;;;;;;;;6160631;23;19943;-91
2023/04/01 13:12:55;;;;;;;;;;;;;;;;;;6195975;23;19931;-93
2023/04/01 13:15:24;;;;;;;;;;;;;;;;;;6160230;23;19920;-91
2023/04/01 13:17:52;;;;;;;;;;;;;;;;;;6162326;23;19921;-91
2023/04/01 13:20:23;;;;;;;;;;;;;;;;;;6161884;23;19955;-91
2023/04/01 13:22:55;;;;;;;;;;;;;;;;;;6182876;23;19927;-90
2023/04/01 13:25:25;;;;;;;;;;;;;;;;;;6160627;23;19920;-88
2023/04/01 13:27:59;;;;;;;;;;;;;;;;;;6195123;23;19924;-91
2023/04/01 13:30:27;;;;;;;;;;;;;;;;;;6184590;23;19924;-90
2023/04/01 13:32:56;;;;;;;;;;;;;;;;;;6194974;23;19927;-91
2023/04/01 13:35:52;;;;;;;;;;;;;;;;;;6185710;23;19920;-91
2023/04/01 13:38:37;;;;;;;;;;;;;;;;;;6161569;23;19924;-90
2023/04/01 13:41:06;;;;;;;;;;;;;;;;;;6185342;23;19927;-90
2023/04/01 13:43:36;;;;;;;;;;;;;;;;;;6190131;23;19924;-90
2023/04/01 13:46:10;;;;;;;;;;;;;;;;;;6163477;23;20267;-93
2023/04/01 13:48:41;;;;;;;;;;;;;;;;;;6161295;23;19920;-91
2023/04/01 13:51:14;;;;;;;;;;;;;;;;;;6162831;23;19920;-92
2023/04/01 13:53:50;;;;;;;;;;;;;;;;;;6187870;23;19920;-92
2023/04/01 13:56:18;;;;;;;;;;;;;;;;;;6187275;23;20263;-92
2023/04/01 13:58:58;;;;;;;;;;;;;;;;;;6163476;23;19924;-92
2023/04/01 14:01:32;;;;;;;;;;;;;;;;;;6165034;23;19924;-92
2023/04/01 14:04:14;;;;;;;;;;;;;;;;;;6165005;23;20486;-93
2023/04/01 14:06:51;;;;;;;;;;;;;;;;;;6163004;23;19924;-91
2023/04/01 14:09:33;;;;;;;;;;;;;;;;;;6165142;23;19920;-90
2023/04/01 14:12:02;;;;;;;;;;;;;;;;;;6169023;23;19924;-92
2023/04/01 14:14:35;;;;;;;;;;;;;;;;;;6163462;23;19977;-92
2023/04/01 14:17:14;;;;;;;;;;;;;;;;;;6167506;23;19926;-93
2023/04/01 14:19:48;;;;;;;;;;;;;;;;;;6165024;23;20427;-91
2023/04/01 14:22:24;;;;;;;;;;;;;;;;;;6187810;23;19920;-90
2023/04/01 14:24:59;;;;;;;;;;;;;;;;;;6163722;23;19920;-91
2023/04/01 14:27:30;;;;;;;;;;;;;;;;;;6192223;23;19920;-90
2023/04/01 14:30:19;;;;;;;;;;;;;;;;;;6163282;23;19921;-90
2023/04/01 14:32:53;;;;;;;;;;;;;;;;;;6163775;23;19920;-92
2023/04/01 14:35:25;;;;;;;;;;;;;;;;;;6163568;23;19921;-90
2023/04/01 14:38:10;;;;;;;;;;;;;;;;;;6214399;23;19921;-89
2023/04/01 14:40:51;;;;;;;;;;;;;;;;;;6176945;23;19924;-91
2023/04/01 14:43:24;;;;;;;;;;;;;;;;;;6188368;23;19920;-90
2023/04/01 14:46:08;;;;;;;;;;;;;;;;;;6163234;23;19920;-90
2023/04/01 14:48:51;;;;;;;;;;;;;;;;;;6164962;23;20621;-90
2023/04/01 14:51:20;;;;;;;;;;;;;;;;;;6164175;23;20332;-91
2023/04/01 14:53:53;;;;;;;;;;;;;;;;;;6162244;23;19924;-91
2023/04/01 14:56:35;;;;;;;;;;;;;;;;;;6163531;23;20264;-88
2023/04/01 14:59:02;;;;;;;;;;;;;;;;;;6191970;23;19927;-91
2023/04/01 15:01:35;;;;;;;;;;;;;;;;;;6166274;23;19929;-89
2023/04/01 15:04:10;;;;;;;;;;;;;;;;;;6165557;23;19921;-91
2023/04/01 15:06:42;;;;;;;;;;;;;;;;;;6189187;23;19920;-91
2023/04/01 15:09:11;;;;;;;;;;;;;;;;;;6163588;23;19928;-91
2023/04/01 15:11:45;;;;;;;;;;;;;;;;;;6166672;23;19920;-90
2023/04/01 15:14:29;;;;;;;;;;;;;;;;;;6185105;23;19926;-90
2023/04/01 15:17:00;;;;;;;;;;;;;;;;;;6188978;23;19928;-89
2023/04/01 15:19:33;;;;;;;;;;;;;;;;;;6161054;23;19925;-88
2023/04/01 15:22:16;;;;;;;;;;;;;;;;;;6196660;23;19927;-88
2023/04/01 15:40:46;;;;;;;;;;;;;;;;;;6142865;22;2085585;-89
2023/04/01 15:43:21;;;;;;;;;;;;;;;;;;6194603;23;20331;-90
2023/04/01 15:45:52;;;;;;;;;;;;;;;;;;6164555;23;20340;-89
2023/04/01 15:48:34;;;;;;;;;;;;;;;;;;6166218;23;19924;-91
2023/04/01 15:51:21;;;;;;;;;;;;;;;;;;6165522;23;19924;-90
2023/04/01 15:54:02;;;;;;;;;;;;;;;;;;6170188;23;19920;-90
2023/04/01 15:56:41;;;;;;;;;;;;;;;;;;6190998;23;19924;-89
2023/04/01 15:59:12;;;;;;;;;;;;;;;;;;6229873;23;19954;-89
2023/04/01 16:01:40;;;;;;;;;;;;;;;;;;6229380;23;19931;-89
2023/04/01 16:04:13;;;;;;;;;;;;;;;;;;6193393;23;19920;-89
2023/04/01 16:06:44;;;;;;;;;;;;;;;;;;6226848;23;19919;-90
2023/04/01 16:09:29;;;;;;;;;;;;;;;;;;6230949;23;19920;-90
2023/04/01 16:11:58;;;;;;;;;;;;;;;;;;6193236;23;19924;-89
2023/04/01 16:14:29;;;;;;;;;;;;;;;;;;6204446;23;19924;-89
2023/04/01 16:17:16;;;;;;;;;;;;;;;;;;6223382;23;19939;-89
2023/04/01 16:20:08;;;;;;;;;;;;;;;;;;6196353;23;19927;-89
2023/04/01 16:22:36;;;;;;;;;;;;;;;;;;6169645;23;19920;-88
2023/04/01 17:36:20;;;;;;;;;;;;;;;;;;6244717;23;19924;-88
2023/04/01 17:38:51;;;;;;;;;;;;;;;;;;6218776;23;19942;-88
2023/04/01 17:41:20;;;;;;;;;;;;;;;;;;6254857;23;19938;-88
2023/04/01 17:43:48;;;;;;;;;;;;;;;;;;6244108;23;19920;-88
2023/04/01 17:46:25;;;;;;;;;;;;;;;;;;6252788;23;19924;-88
2023/04/01 17:48:53;;;;;;;;;;;;;;;;;;6255423;23;19920;-88
2023/04/01 17:51:23;;;;;;;;;;;;;;;;;;6218338;23;19920;-89
2023/04/01 17:53:52;;;;;;;;;;;;;;;;;;6253782;23;20351;-87
2023/04/01 17:56:21;;;;;;;;;;;;;;;;;;6253300;23;19930;-84
2023/04/01 17:59:28;;;;;;;;;;;;;;;;;;6247585;23;19926;-87
2023/04/01 18:34:16;;;;;;;;;;;;;;;;;;5798656;24;19924;-87
2023/04/01 18:36:45;;;;;;;;;;;;;;;;;;6042123;23;19921;-86
2023/04/01 18:39:13;;;;;;;;;;;;;;;;;;6239114;23;19919;-88
2023/04/01 18:41:44;;;;;;;;;;;;;;;;;;6246258;23;20279;-88
2023/04/01 18:44:20;;;;;;;;;;;;;;;;;;6255666;23;19928;-87
2023/04/01 18:46:49;;;;;;;;;;;;;;;;;;6248287;23;19920;-87
2023/04/01 18:49:18;;;;;;;;;;;;;;;;;;6244840;23;19927;-87
2023/04/01 18:51:46;;;;;;;;;;;;;;;;;;6257395;23;19919;-86
2023/04/01 18:54:14;;;;;;;;;;;;;;;;;;6192789;23;19920;-87
2023/04/01 18:56:41;;;;;;;;;;;;;;;;;;6221405;23;20339;-87
2023/04/01 18:59:11;;;;;;;;;;;;;;;;;;6259631;23;19915;-87
2023/04/01 19:01:40;;;;;;;;;;;;;;;;;;6271485;22;19924;-88
2023/04/01 19:04:25;;;;;;;;;;;;;;;;;;6269981;23;19919;-87
2023/04/01 19:06:55;;;;;;;;;;;;;;;;;;6249601;23;19926;-88
2023/04/01 19:09:26;;;;;;;;;;;;;;;;;;6232718;23;19923;-89
2023/04/01 19:12:00;;;;;;;;;;;;;;;;;;6240823;23;19923;-86
2023/04/01 19:14:28;;;;;;;;;;;;;;;;;;6229461;23;19920;-88
2023/04/01 19:16:56;;;;;;;;;;;;;;;;;;6254077;23;19931;-86
2023/04/01 19:19:41;;;;;;;;;;;;;;;;;;6221689;23;19920;-88
2023/04/01 19:22:16;;;;;;;;;;;;;;;;;;6218051;23;20340;-87
2023/04/01 19:24:46;;;;;;;;;;;;;;;;;;6228464;23;20332;-87
2023/04/01 19:27:16;;;;;;;;;;;;;;;;;;6245148;23;19919;-88
2023/04/01 19:29:46;;;;;;;;;;;;;;;;;;6216694;23;20379;-88
2023/04/01 19:32:16;;;;;;;;;;;;;;;;;;6191055;23;19920;-88
2023/04/01 19:34:47;;;;;;;;;;;;;;;;;;6216595;23;19974;-87
2023/04/01 19:37:23;;;;;;;;;;;;;;;;;;6218035;23;20378;-88
2023/04/01 19:39:53;;;;;;;;;;;;;;;;;;6253510;23;19931;-88
2023/04/01 19:42:21;;;;;;;;;;;;;;;;;;6252436;23;20340;-88